Northern Maine Regional Airport at Presque Isle Presque Isle US
ICAO: KPQI
IATA: PQI
Category: Medium
Scheduled Services: Yes

Elevation: 534 ft
TransAlt. 18000 ft.

Airport Communications:
AWOS 3:118.025
BOSTON CLNC DEL:121.6
BOSTON CNTR:124.75
CTAF/UNICOM:122.8

KPQI Zoom In..

Runways:

(A) RW 01 length 7439 ft width 150 ft
ILS 108.70 / hdg 6

(B) RW 10 length 5994 ft width 100 ft
---- / hdg 96

(C) RW 19 length 7439 ft width 150 ft
---- / hdg 186

(D) RW 28 length 5994 ft width 100 ft
---- / hdg 276

Location; KPQI
Day. 25 / Time. 12.56 Zulu
* Altimeter: 30.47
* Temperature: -08° c. -17.6°f.
* Wind from: VRB° Speed 04 kn.
Dewpoint: -11° c.
Visibility: 10 Statute Miles.
Clouds: Overcast 1000 ft.

KPQI 251256Z AUTO VRB04KT 10SM OVC100 M08/M11 A3047 RMK AO2 SLP356 T10831106 PNO $

Going to: --> -->


Wind From VRB°
Speed 04 kn.

 
 
jpsmedia worldairports.se 2020   terms of use